createdAt,value
2019-01-02T00:00:40.686Z,68.35
2019-01-02T00:01:40.769Z,68.22
2019-01-02T00:02:40.654Z,67.83
2019-01-02T00:03:40.674Z,67.39
2019-01-02T00:04:40.640Z,67.49
2019-01-02T00:05:40.623Z,67.29
2019-01-02T00:06:40.613Z,67.49
2019-01-02T00:07:40.628Z,67.39
2019-01-02T00:08:40.589Z,67.29
2019-01-02T00:09:40.584Z,67.29
2019-01-02T00:10:40.574Z,67.18
2019-01-02T00:11:40.565Z,67.29
2019-01-02T00:12:40.553Z,67.08
2019-01-02T00:13:40.559Z,67.60
2019-01-02T00:14:40.688Z,67.60
2019-01-02T00:15:40.512Z,67.49
2019-01-02T00:16:40.499Z,67.18
2019-01-02T00:17:40.615Z,67.49
2019-01-02T00:18:40.485Z,67.18
2019-01-02T00:19:40.501Z,68.43
2019-01-02T00:20:40.453Z,67.39
2019-01-02T00:21:40.489Z,67.39
2019-01-02T00:22:40.445Z,67.39
2019-01-02T00:23:40.447Z,67.29
2019-01-02T00:24:40.442Z,66.97
2019-01-02T00:25:40.406Z,66.77
2019-01-02T00:26:40.390Z,67.39
2019-01-02T00:27:40.439Z,67.08
2019-01-02T00:28:40.370Z,67.29
2019-01-02T00:29:40.355Z,67.39
2019-01-02T00:30:40.387Z,67.18
2019-01-02T00:31:40.339Z,66.97
2019-01-02T00:32:40.352Z,67.70
2019-01-02T00:33:40.325Z,67.49
2019-01-02T00:34:40.321Z,67.29
2019-01-02T00:35:40.321Z,67.18
2019-01-02T00:36:40.314Z,67.49
2019-01-02T00:37:40.272Z,66.87
2019-01-02T00:38:40.412Z,67.39
2019-01-02T00:39:40.249Z,67.29
2019-01-02T00:40:40.262Z,66.77
2019-01-02T00:41:40.250Z,66.77
2019-01-02T00:42:40.216Z,66.77
2019-01-02T00:43:40.208Z,66.77
2019-01-02T00:44:40.201Z,66.05
2019-01-02T00:45:40.234Z,66.97
2019-01-02T00:46:40.180Z,66.94
2019-01-02T00:47:40.177Z,66.84
2019-01-02T00:48:40.157Z,66.56
2019-01-02T00:49:40.142Z,66.32
2019-01-02T00:50:40.125Z,67.08
2019-01-02T00:51:40.154Z,66.66
2019-01-02T00:52:40.112Z,66.46
2019-01-02T00:53:40.099Z,66.02
2019-01-02T00:54:40.224Z,66.22
2019-01-02T00:55:40.186Z,65.63
2019-01-02T00:56:40.071Z,66.05
2019-01-02T00:57:40.117Z,66.22
2019-01-02T00:58:40.055Z,66.35
2019-01-02T00:59:40.071Z,66.12
2019-01-02T01:00:40.025Z,66.15
2019-01-02T01:01:40.033Z,66.32
2019-01-02T01:02:40.008Z,66.32
2019-01-02T01:03:39.992Z,65.73
2019-01-02T01:04:39.991Z,66.42
2019-01-02T01:05:39.999Z,65.60
2019-01-02T01:06:39.956Z,65.60
2019-01-02T01:07:39.943Z,65.08
2019-01-02T01:08:39.966Z,65.91
2019-01-02T01:09:39.924Z,65.60
2019-01-02T01:10:40.079Z,65.29
2019-01-02T01:11:39.917Z,65.81
2019-01-02T01:12:39.893Z,65.29
2019-01-02T01:13:39.886Z,65.29
2019-01-02T01:14:39.930Z,64.98
2019-01-02T01:15:39.859Z,64.67
2019-01-02T01:16:39.858Z,64.46
2019-01-02T01:17:39.849Z,64.46
2019-01-02T01:18:40.625Z,64.36
2019-01-02T01:19:39.836Z,64.46
2019-01-02T01:20:39.851Z,64.98
2019-01-02T01:21:39.836Z,65.19
2019-01-02T01:22:39.776Z,64.87
2019-01-02T01:23:39.786Z,65.08
2019-01-02T01:24:39.759Z,64.77
2019-01-02T01:25:39.752Z,64.46
2019-01-02T01:26:39.776Z,64.04
2019-01-02T01:27:39.732Z,64.36
2019-01-02T01:28:39.728Z,63.84
2019-01-02T01:29:39.704Z,63.95
2019-01-02T01:30:39.694Z,64.15
2019-01-02T01:31:39.687Z,64.46
2019-01-02T01:32:39.698Z,63.95
2019-01-02T01:33:39.660Z,64.15
2019-01-02T01:34:39.812Z,63.95
2019-01-02T01:35:39.634Z,64.15
2019-01-02T01:36:39.692Z,64.25
2019-01-02T01:37:39.675Z,64.36
2019-01-02T01:38:39.612Z,64.15
2019-01-02T01:39:39.601Z,64.15
2019-01-02T01:40:39.592Z,64.25
2019-01-02T01:41:39.579Z,64.77
2019-01-02T01:42:39.587Z,64.25
2019-01-02T01:43:39.592Z,64.87
2019-01-02T01:44:39.561Z,64.36
2019-01-02T01:45:39.564Z,65.19
2019-01-02T01:46:39.517Z,64.67
2019-01-02T01:47:39.532Z,64.77
2019-01-02T01:48:39.523Z,65.19
2019-01-02T01:49:39.481Z,65.08
2019-01-02T01:50:39.654Z,65.60
2019-01-02T01:51:39.462Z,65.29
2019-01-02T01:52:39.496Z,65.91
2019-01-02T01:53:39.485Z,65.73
2019-01-02T01:54:39.431Z,65.42
2019-01-02T01:55:39.445Z,66.22
2019-01-02T01:56:39.413Z,65.91
2019-01-02T01:57:39.402Z,65.70
2019-01-02T01:58:39.389Z,66.02
2019-01-02T01:59:39.398Z,65.70
2019-01-02T02:00:39.388Z,66.15
2019-01-02T02:01:39.359Z,65.42
2019-01-02T02:02:39.384Z,66.46
2019-01-02T02:03:39.333Z,66.15
2019-01-02T02:04:39.331Z,66.35
2019-01-02T02:05:39.317Z,66.25
2019-01-02T02:06:39.328Z,66.77
2019-01-02T02:07:39.335Z,66.46
2019-01-02T02:08:39.279Z,65.73
2019-01-02T02:09:39.282Z,65.73
2019-01-02T02:10:39.271Z,65.63
2019-01-02T02:11:39.249Z,66.25
2019-01-02T02:12:39.261Z,66.66
2019-01-02T02:13:39.235Z,66.46
2019-01-02T02:14:39.311Z,66.35
2019-01-02T02:15:39.241Z,66.25
2019-01-02T02:16:39.195Z,66.46
2019-01-02T02:17:39.244Z,66.35
2019-01-02T02:18:39.189Z,66.15
2019-01-02T02:19:39.165Z,66.69
2019-01-02T02:20:39.174Z,66.69
2019-01-02T02:21:39.175Z,66.80
2019-01-02T02:22:39.131Z,67.11
2019-01-02T02:23:39.117Z,66.77
2019-01-02T02:24:39.139Z,66.90
2019-01-02T02:25:39.116Z,66.77
2019-01-02T02:26:39.097Z,67.29
2019-01-02T02:27:39.075Z,67.39
2019-01-02T02:28:39.064Z,67.29
2019-01-02T02:29:39.081Z,67.60
2019-01-02T02:30:39.142Z,67.08
2019-01-02T02:31:39.033Z,66.97
2019-01-02T02:32:39.028Z,66.77
2019-01-02T02:33:39.053Z,67.42
2019-01-02T02:34:39.002Z,67.32
2019-01-02T02:35:38.989Z,67.83
2019-01-02T02:36:38.989Z,67.73
2019-01-02T02:37:38.968Z,67.91
2019-01-02T02:38:38.954Z,68.46
2019-01-02T02:39:39.004Z,68.25
2019-01-02T02:40:38.941Z,68.04
2019-01-02T02:41:38.934Z,68.04
2019-01-02T02:42:38.923Z,68.56
2019-01-02T02:43:38.898Z,68.77
2019-01-02T02:44:38.920Z,69.08
2019-01-02T02:45:38.922Z,69.39
2019-01-02T02:46:38.969Z,69.80
2019-01-02T02:47:38.859Z,69.49
2019-01-02T02:48:38.840Z,69.90
2019-01-02T02:49:38.838Z,69.80
2019-01-02T02:50:38.848Z,69.67
2019-01-02T02:51:38.817Z,69.90
2019-01-02T02:52:38.809Z,70.11
2019-01-02T02:53:38.788Z,69.77
2019-01-02T02:54:38.840Z,69.98
2019-01-02T02:55:38.779Z,69.80
2019-01-02T02:56:38.783Z,70.01
2019-01-02T02:57:38.747Z,69.56
2019-01-02T02:58:38.739Z,70.63
2019-01-02T02:59:38.720Z,70.53
2019-01-02T03:00:38.709Z,70.32
2019-01-02T03:01:38.752Z,70.73
2019-01-02T03:02:38.694Z,70.11
2019-01-02T03:03:38.693Z,71.56
2019-01-02T03:04:38.672Z,70.63
2019-01-02T03:05:38.654Z,71.25
2019-01-02T03:06:38.659Z,71.04
2019-01-02T03:07:38.683Z,71.67
2019-01-02T03:08:38.631Z,71.56
2019-01-02T03:09:38.612Z,70.84
2019-01-02T03:10:38.762Z,71.56
2019-01-02T03:11:38.598Z,71.98
2019-01-02T03:12:38.600Z,71.56
2019-01-02T03:13:38.699Z,71.56
2019-01-02T03:14:38.568Z,71.88
2019-01-02T03:15:38.560Z,71.77
2019-01-02T03:16:38.542Z,71.36
2019-01-02T03:17:38.532Z,71.04
2019-01-02T03:18:38.541Z,72.01
2019-01-02T03:19:38.512Z,72.08
2019-01-02T03:20:38.503Z,71.25
2019-01-02T03:21:38.483Z,71.88
2019-01-02T03:22:38.502Z,71.56
2019-01-02T03:23:38.471Z,71.56
2019-01-02T03:24:38.480Z,71.67
2019-01-02T03:25:38.440Z,71.56
2019-01-02T03:26:38.434Z,71.98
2019-01-02T03:27:38.451Z,71.98
2019-01-02T03:28:38.416Z,72.08
2019-01-02T03:29:38.426Z,71.77
2019-01-02T03:30:38.387Z,72.08
2019-01-02T03:31:38.417Z,71.88
2019-01-02T03:32:38.406Z,71.56
2019-01-02T03:33:38.415Z,72.08
2019-01-02T03:34:38.344Z,72.19
2019-01-02T03:35:38.344Z,71.98
2019-01-02T03:36:38.332Z,71.56
2019-01-02T03:37:38.330Z,71.98
2019-01-02T03:38:38.299Z,71.98
2019-01-02T03:39:38.293Z,72.29
2019-01-02T03:40:38.287Z,72.29
2019-01-02T03:41:38.272Z,72.19
2019-01-02T03:42:38.293Z,72.08
2019-01-02T03:43:38.240Z,72.60
2019-01-02T03:44:38.234Z,72.50
2019-01-02T03:45:38.244Z,72.39
2019-01-02T03:46:38.232Z,73.01
2019-01-02T03:47:38.199Z,73.22
2019-01-02T03:48:38.193Z,72.08
2019-01-02T03:49:38.214Z,72.08
2019-01-02T03:50:38.172Z,72.39
2019-01-02T03:51:38.164Z,72.50
2019-01-02T03:52:38.148Z,72.81
2019-01-02T03:53:38.286Z,72.91
2019-01-02T03:54:38.123Z,72.08
2019-01-02T03:55:38.155Z,72.50
2019-01-02T03:56:38.114Z,73.22
2019-01-02T03:57:38.108Z,73.32
2019-01-02T03:58:38.110Z,73.11
2019-01-02T03:59:38.080Z,73.11
2019-01-02T04:00:38.058Z,73.22
2019-01-02T04:01:38.090Z,73.11
2019-01-02T04:02:38.034Z,73.11
2019-01-02T04:03:38.064Z,73.63
2019-01-02T04:04:38.015Z,73.32
2019-01-02T04:05:38.020Z,73.08
2019-01-02T04:06:38.017Z,72.71
2019-01-02T04:07:37.987Z,73.22
2019-01-02T04:08:38.005Z,73.22
2019-01-02T04:09:38.165Z,73.63
2019-01-02T04:10:37.972Z,73.50
2019-01-02T04:11:37.936Z,73.63
2019-01-02T04:12:37.949Z,73.84
2019-01-02T04:13:37.960Z,73.63
2019-01-02T04:14:37.908Z,73.74
2019-01-02T04:15:37.944Z,73.63
2019-01-02T04:16:37.914Z,73.32
2019-01-02T04:17:37.901Z,73.22
2019-01-02T04:18:37.862Z,73.63
2019-01-02T04:19:37.863Z,73.43
2019-01-02T04:20:37.848Z,73.63
2019-01-02T04:21:37.878Z,73.63
2019-01-02T04:22:37.835Z,73.74
2019-01-02T04:23:37.866Z,73.63
2019-01-02T04:24:37.802Z,73.53
2019-01-02T04:25:37.876Z,73.53
2019-01-02T04:26:37.775Z,73.43
2019-01-02T04:27:37.769Z,73.63
2019-01-02T04:28:37.786Z,73.63
2019-01-02T04:29:37.743Z,73.63
2019-01-02T04:30:37.733Z,73.63
2019-01-02T04:31:37.723Z,73.63
2019-01-02T04:32:37.717Z,73.43
2019-01-02T04:33:37.813Z,73.60
2019-01-02T04:34:37.709Z,73.63
2019-01-02T04:35:37.711Z,73.50
2019-01-02T04:36:37.695Z,73.71
2019-01-02T04:37:37.663Z,73.60
2019-01-02T04:38:37.676Z,73.50
2019-01-02T04:39:37.636Z,73.60
2019-01-02T04:40:37.630Z,73.63
2019-01-02T04:41:37.655Z,73.71
2019-01-02T04:42:37.604Z,72.98
2019-01-02T04:43:37.594Z,73.19
2019-01-02T04:44:37.582Z,73.50
2019-01-02T04:45:37.578Z,73.81
2019-01-02T04:46:37.567Z,73.08
2019-01-02T04:47:37.578Z,73.19
2019-01-02T04:48:37.553Z,73.08
2019-01-02T04:49:37.715Z,73.60
2019-01-02T04:50:37.522Z,73.81
2019-01-02T04:51:37.510Z,73.50
2019-01-02T04:52:37.502Z,73.60
2019-01-02T04:53:37.496Z,73.50
2019-01-02T04:54:37.526Z,73.39
2019-01-02T04:55:37.535Z,73.50
2019-01-02T04:56:37.472Z,73.50
2019-01-02T04:57:37.437Z,73.60
2019-01-02T04:58:37.457Z,73.29
2019-01-02T04:59:37.431Z,73.39
2019-01-02T05:00:37.445Z,73.60
2019-01-02T05:01:37.405Z,73.50
2019-01-02T05:02:37.393Z,73.50
2019-01-02T05:03:37.377Z,73.50
2019-01-02T05:04:37.366Z,73.50
2019-01-02T05:05:37.474Z,73.50
2019-01-02T05:06:37.385Z,73.60
2019-01-02T05:07:37.341Z,73.60
2019-01-02T05:08:37.329Z,73.50
2019-01-02T05:09:37.333Z,73.84
2019-01-02T05:10:37.299Z,73.19
2019-01-02T05:11:37.289Z,73.60
2019-01-02T05:12:37.309Z,73.22
2019-01-02T05:13:37.268Z,73.53
2019-01-02T05:14:37.263Z,73.32
2019-01-02T05:15:37.268Z,73.71
2019-01-02T05:16:37.261Z,73.32
2019-01-02T05:17:37.234Z,73.50
2019-01-02T05:18:37.244Z,74.05
2019-01-02T05:19:37.224Z,73.91
2019-01-02T05:20:37.210Z,73.50
2019-01-02T05:21:37.191Z,73.81
2019-01-02T05:22:37.198Z,74.12
2019-01-02T05:23:37.198Z,74.15
2019-01-02T05:24:37.151Z,74.12
2019-01-02T05:25:37.168Z,74.12
2019-01-02T05:26:37.127Z,74.53
2019-01-02T05:27:37.155Z,74.43
2019-01-02T05:28:37.143Z,73.71
2019-01-02T05:29:37.299Z,74.02
2019-01-02T05:30:37.116Z,74.15
2019-01-02T05:31:37.064Z,74.36
2019-01-02T05:32:37.054Z,74.05
2019-01-02T05:33:37.074Z,74.22
2019-01-02T05:34:37.049Z,74.02
2019-01-02T05:35:37.059Z,73.50
2019-01-02T05:36:37.012Z,73.81
2019-01-02T05:37:37.040Z,72.88
2019-01-02T05:38:36.992Z,74.12
2019-01-02T05:39:36.994Z,74.26
2019-01-02T05:40:36.979Z,74.26
2019-01-02T05:41:36.982Z,74.22
2019-01-02T05:42:37.002Z,74.43
2019-01-02T05:43:37.003Z,74.15
2019-01-02T05:44:36.949Z,74.12
2019-01-02T05:45:37.070Z,74.15
2019-01-02T05:46:36.932Z,74.02
2019-01-02T05:47:36.916Z,74.36
2019-01-02T05:48:36.994Z,73.91
2019-01-02T05:49:36.895Z,74.32
2019-01-02T05:50:36.872Z,74.22
2019-01-02T05:51:36.860Z,74.12
2019-01-02T05:52:36.875Z,74.15
2019-01-02T05:53:36.867Z,74.02
2019-01-02T05:54:36.824Z,74.43
2019-01-02T05:55:36.815Z,74.57
2019-01-02T05:56:36.803Z,74.67
2019-01-02T05:57:36.805Z,74.43
2019-01-02T05:58:36.786Z,74.36
2019-01-02T05:59:36.806Z,74.77
2019-01-02T06:00:39.825Z,74.88
2019-01-02T06:01:36.754Z,74.57
2019-01-02T06:02:36.751Z,75.71
2019-01-02T06:03:36.735Z,75.60
2019-01-02T06:04:36.736Z,75.50
2019-01-02T06:05:36.729Z,75.40
2019-01-02T06:06:36.721Z,75.09
2019-01-02T06:07:36.685Z,75.09
2019-01-02T06:08:36.713Z,75.92
2019-01-02T06:09:36.817Z,76.02
2019-01-02T06:10:36.692Z,75.60
2019-01-02T06:11:36.667Z,76.23
2019-01-02T06:12:36.694Z,76.53
2019-01-02T06:13:36.611Z,75.46
2019-01-02T06:14:36.602Z,75.40
2019-01-02T06:15:36.622Z,76.02
2019-01-02T06:16:36.613Z,75.81
2019-01-02T06:17:36.601Z,75.60
2019-01-02T06:18:36.600Z,76.23
2019-01-02T06:19:36.554Z,76.32
2019-01-02T06:20:36.567Z,76.02
2019-01-02T06:21:36.529Z,75.92
2019-01-02T06:22:36.518Z,76.23
2019-01-02T06:23:36.518Z,76.12
2019-01-02T06:24:36.497Z,76.43
2019-01-02T06:25:36.519Z,76.43
2019-01-02T06:26:36.512Z,76.46
2019-01-02T06:27:36.465Z,76.84
2019-01-02T06:28:36.577Z,76.74
2019-01-02T06:29:36.461Z,76.95
2019-01-02T06:30:36.423Z,76.74
2019-01-02T06:31:36.420Z,76.95
2019-01-02T06:32:36.407Z,76.84
2019-01-02T06:33:36.432Z,76.84
2019-01-02T06:34:36.421Z,76.74
2019-01-02T06:35:36.376Z,76.43
2019-01-02T06:36:36.367Z,76.43
2019-01-02T06:37:36.349Z,76.61
2019-01-02T06:38:36.354Z,76.43
2019-01-02T06:39:36.363Z,76.74
2019-01-02T06:40:36.332Z,76.61
2019-01-02T06:41:36.320Z,76.29
2019-01-02T06:42:36.310Z,76.95
2019-01-02T06:43:36.302Z,76.32
2019-01-02T06:44:36.422Z,76.95
2019-01-02T06:45:36.303Z,77.01
2019-01-02T06:46:36.259Z,77.01
2019-01-02T06:47:36.270Z,76.40
2019-01-02T06:48:36.235Z,76.32
2019-01-02T06:49:36.216Z,76.61
2019-01-02T06:50:36.243Z,76.29
2019-01-02T06:51:36.202Z,75.88
2019-01-02T06:52:36.195Z,76.12
2019-01-02T06:53:36.205Z,76.12
2019-01-02T06:54:36.175Z,75.78
2019-01-02T06:55:36.161Z,76.43
2019-01-02T06:56:36.182Z,76.43
2019-01-02T06:57:36.136Z,75.81
2019-01-02T06:58:36.122Z,76.43
2019-01-02T06:59:36.129Z,75.88
2019-01-02T07:00:36.104Z,76.02
2019-01-02T07:01:36.091Z,75.81
2019-01-02T07:02:36.118Z,76.12
2019-01-02T07:03:36.073Z,76.02
2019-01-02T07:04:36.061Z,76.02
2019-01-02T07:05:36.126Z,76.12
2019-01-02T07:06:36.044Z,76.02
2019-01-02T07:07:36.075Z,75.81
2019-01-02T07:08:36.093Z,76.09
2019-01-02T07:09:36.028Z,76.12
2019-01-02T07:10:36.000Z,76.32
2019-01-02T07:11:35.981Z,76.02
2019-01-02T07:12:36.015Z,76.71
2019-01-02T07:13:35.990Z,75.92
2019-01-02T07:14:35.950Z,76.12
2019-01-02T07:15:35.949Z,76.23
2019-01-02T07:16:35.951Z,76.43
2019-01-02T07:17:35.964Z,76.53
2019-01-02T07:18:35.926Z,76.23
2019-01-02T07:19:35.897Z,76.23
2019-01-02T07:20:35.906Z,76.74
2019-01-02T07:21:35.875Z,76.43
2019-01-02T07:22:35.862Z,76.53
2019-01-02T07:23:35.886Z,76.95
2019-01-02T07:24:35.948Z,76.95
2019-01-02T07:25:35.862Z,76.95
2019-01-02T07:26:35.821Z,76.53
2019-01-02T07:27:35.831Z,76.53
2019-01-02T07:28:35.798Z,76.64
2019-01-02T07:29:35.856Z,76.95
2019-01-02T07:30:35.787Z,76.84
2019-01-02T07:31:35.761Z,76.84
2019-01-02T07:32:35.769Z,77.26
2019-01-02T07:33:35.750Z,76.84
2019-01-02T07:34:35.779Z,77.09
2019-01-02T07:35:35.720Z,77.05
2019-01-02T07:36:35.733Z,76.95
2019-01-02T07:37:35.731Z,77.40
2019-01-02T07:38:35.717Z,77.29
2019-01-02T07:39:35.677Z,76.98
2019-01-02T07:40:35.771Z,76.95
2019-01-02T07:41:35.658Z,77.05
2019-01-02T07:42:35.678Z,77.09
2019-01-02T07:43:36.531Z,77.36
2019-01-02T07:44:35.621Z,77.47
2019-01-02T07:45:35.827Z,77.47
2019-01-02T07:46:35.620Z,77.50
2019-01-02T07:47:35.600Z,77.40
2019-01-02T07:48:35.611Z,77.29
2019-01-02T07:49:35.594Z,77.15
2019-01-02T07:50:35.559Z,76.98
2019-01-02T07:51:35.571Z,76.98
2019-01-02T07:52:35.565Z,77.40
2019-01-02T07:53:35.542Z,77.47
2019-01-02T07:54:35.521Z,77.67
2019-01-02T07:55:35.535Z,77.36
2019-01-02T07:56:35.504Z,76.95
2019-01-02T07:57:35.540Z,76.95
2019-01-02T07:58:35.473Z,76.84
2019-01-02T07:59:35.504Z,76.64
2019-01-02T08:00:35.460Z,76.43
2019-01-02T08:01:35.560Z,77.36
2019-01-02T08:02:35.452Z,76.53
2019-01-02T08:03:35.416Z,76.43
2019-01-02T08:04:35.442Z,76.23
2019-01-02T08:05:35.440Z,77.05
2019-01-02T08:06:35.396Z,76.53
2019-01-02T08:07:35.409Z,76.74
2019-01-02T08:08:35.374Z,76.74
2019-01-02T08:09:35.349Z,76.32
2019-01-02T08:10:35.351Z,76.71
2019-01-02T08:11:35.359Z,76.74
2019-01-02T08:12:35.347Z,76.53
2019-01-02T08:13:35.322Z,77.15
2019-01-02T08:14:35.360Z,77.22
2019-01-02T08:15:35.323Z,76.74
2019-01-02T08:16:35.303Z,77.33
2019-01-02T08:17:35.368Z,76.71
2019-01-02T08:18:35.267Z,76.91
2019-01-02T08:19:35.271Z,76.40
2019-01-02T08:20:35.336Z,77.12
2019-01-02T08:21:35.260Z,76.40
2019-01-02T08:22:35.216Z,76.40
2019-01-02T08:23:35.217Z,76.91
2019-01-02T08:24:35.194Z,76.91
2019-01-02T08:25:35.190Z,76.61
2019-01-02T08:26:35.204Z,76.40
2019-01-02T08:27:35.191Z,76.61
2019-01-02T08:28:35.151Z,76.71
2019-01-02T08:29:35.176Z,76.19
2019-01-02T08:30:35.132Z,76.40
2019-01-02T08:31:35.130Z,76.91
2019-01-02T08:32:35.121Z,77.01
2019-01-02T08:33:35.098Z,76.91
2019-01-02T08:34:35.132Z,76.50
2019-01-02T08:35:35.108Z,76.29
2019-01-02T08:36:35.062Z,77.12
2019-01-02T08:37:35.047Z,77.12
2019-01-02T08:38:35.055Z,76.29
2019-01-02T08:39:35.061Z,76.50
2019-01-02T08:40:35.015Z,76.91
2019-01-02T08:41:35.150Z,76.81
2019-01-02T08:42:35.006Z,76.50
2019-01-02T08:43:34.985Z,76.91
2019-01-02T08:44:35.019Z,76.91
2019-01-02T08:45:35.013Z,76.46
2019-01-02T08:46:34.953Z,76.71
2019-01-02T08:47:34.943Z,76.81
2019-01-02T08:48:34.936Z,76.81
2019-01-02T08:49:34.912Z,76.71
2019-01-02T08:50:34.940Z,76.91
2019-01-02T08:51:34.917Z,76.91
2019-01-02T08:52:34.886Z,77.01
2019-01-02T08:53:34.874Z,76.91
2019-01-02T08:54:34.869Z,76.91
2019-01-02T08:55:34.856Z,76.71
2019-01-02T08:56:34.922Z,77.01
2019-01-02T08:57:35.699Z,76.71
2019-01-02T08:58:34.819Z,76.81
2019-01-02T08:59:34.818Z,77.01
2019-01-02T09:00:34.887Z,77.43
2019-01-02T09:01:34.821Z,77.43
2019-01-02T09:02:34.822Z,77.12
2019-01-02T09:03:34.767Z,77.22
2019-01-02T09:04:34.818Z,76.71
2019-01-02T09:05:34.740Z,76.91
2019-01-02T09:06:34.730Z,77.33
2019-01-02T09:07:34.736Z,77.01
2019-01-02T09:08:34.741Z,77.01
2019-01-02T09:09:34.706Z,77.22
2019-01-02T09:10:34.698Z,76.91
2019-01-02T09:11:34.683Z,77.33
2019-01-02T09:12:34.671Z,76.91
2019-01-02T09:13:34.782Z,76.91
2019-01-02T09:14:34.652Z,77.43
2019-01-02T09:15:34.653Z,77.12
2019-01-02T09:16:34.745Z,76.91
2019-01-02T09:17:34.623Z,77.43
2019-01-02T09:18:34.607Z,77.64
2019-01-02T09:19:34.625Z,77.22
2019-01-02T09:20:34.601Z,77.81
2019-01-02T09:21:34.585Z,76.88
2019-01-02T09:22:34.584Z,76.67
2019-01-02T09:23:34.558Z,77.60
2019-01-02T09:24:34.582Z,76.78
2019-01-02T09:25:34.543Z,76.05
2019-01-02T09:26:34.522Z,76.05
2019-01-02T09:27:34.532Z,75.84
2019-01-02T09:28:34.494Z,75.84
2019-01-02T09:29:34.485Z,76.05
2019-01-02T09:30:34.496Z,75.95
2019-01-02T09:31:34.462Z,75.84
2019-01-02T09:32:34.462Z,75.84
2019-01-02T09:33:34.455Z,75.74
2019-01-02T09:34:34.450Z,75.95
2019-01-02T09:35:34.475Z,75.74
2019-01-02T09:36:34.420Z,75.53
2019-01-02T09:37:34.520Z,75.91
2019-01-02T09:38:34.402Z,74.81
2019-01-02T09:39:34.427Z,75.02
2019-01-02T09:40:34.499Z,74.77
2019-01-02T09:41:34.412Z,74.77
2019-01-02T09:42:34.343Z,74.77
2019-01-02T09:43:34.349Z,75.29
2019-01-02T09:44:34.349Z,74.91
2019-01-02T09:45:34.337Z,74.88
2019-01-02T09:46:34.415Z,75.50
2019-01-02T09:47:34.286Z,75.29
2019-01-02T09:48:34.277Z,75.81
2019-01-02T09:49:34.297Z,75.50
2019-01-02T09:50:34.271Z,75.60
2019-01-02T09:51:34.247Z,76.12
2019-01-02T09:52:34.267Z,75.70
2019-01-02T09:53:34.230Z,75.81
2019-01-02T09:54:34.239Z,75.60
2019-01-02T09:55:34.200Z,75.29
2019-01-02T09:56:34.353Z,75.91
2019-01-02T09:57:34.194Z,75.81
2019-01-02T09:58:34.167Z,76.05
2019-01-02T09:59:34.163Z,76.26
2019-01-02T10:00:34.157Z,75.95
2019-01-02T10:01:34.132Z,75.84
2019-01-02T10:02:34.197Z,75.95
2019-01-02T10:03:34.122Z,75.95
2019-01-02T10:04:34.107Z,75.84
2019-01-02T10:05:34.105Z,75.95
2019-01-02T10:06:34.114Z,76.01
2019-01-02T10:07:34.101Z,75.02
2019-01-02T10:08:34.089Z,75.50
2019-01-02T10:09:34.081Z,75.53
2019-01-02T10:10:34.038Z,75.29
2019-01-02T10:11:34.051Z,75.09
2019-01-02T10:12:34.015Z,75.60
2019-01-02T10:13:34.019Z,75.70
2019-01-02T10:14:34.028Z,75.29
2019-01-02T10:15:33.985Z,75.40
2019-01-02T10:16:33.971Z,75.29
2019-01-02T10:17:34.023Z,75.46
2019-01-02T10:18:33.959Z,75.15
2019-01-02T10:19:33.948Z,75.26
2019-01-02T10:20:33.960Z,75.05
2019-01-02T10:21:33.947Z,75.19
2019-01-02T10:22:33.939Z,75.67
2019-01-02T10:23:33.904Z,74.33
2019-01-02T10:24:33.911Z,74.43
2019-01-02T10:25:33.897Z,73.50
2019-01-02T10:26:33.898Z,74.02
2019-01-02T10:27:33.863Z,74.02
2019-01-02T10:28:33.853Z,74.33
2019-01-02T10:29:33.898Z,74.26
2019-01-02T10:30:33.821Z,74.84
2019-01-02T10:31:33.815Z,74.74
2019-01-02T10:32:33.829Z,74.95
2019-01-02T10:33:33.794Z,74.63
2019-01-02T10:34:33.818Z,74.74
2019-01-02T10:35:33.775Z,74.02
2019-01-02T10:36:33.892Z,73.98
2019-01-02T10:37:33.746Z,74.08
2019-01-02T10:38:33.759Z,74.29
2019-01-02T10:39:33.735Z,73.36
2019-01-02T10:40:33.764Z,73.36
2019-01-02T10:41:33.701Z,73.05
2019-01-02T10:42:33.738Z,73.05
2019-01-02T10:43:33.672Z,73.54
2019-01-02T10:44:33.660Z,73.77
2019-01-02T10:45:33.740Z,73.33
2019-01-02T10:46:33.672Z,73.33
2019-01-02T10:47:33.745Z,73.64
2019-01-02T10:48:33.614Z,73.12
2019-01-02T10:49:33.636Z,72.71
2019-01-02T10:50:33.596Z,72.19
2019-01-02T10:51:33.596Z,72.33
2019-01-02T10:52:33.652Z,73.02
2019-01-02T10:53:33.561Z,71.81
2019-01-02T10:54:33.561Z,72.12
2019-01-02T10:55:33.542Z,71.92
2019-01-02T10:56:33.530Z,71.19
2019-01-02T10:57:33.567Z,72.61
2019-01-02T10:58:36.669Z,73.05
2019-01-02T10:59:33.496Z,72.64
2019-01-02T11:00:33.626Z,71.98
2019-01-02T11:01:33.478Z,71.61
2019-01-02T11:02:33.488Z,71.92
2019-01-02T11:03:33.486Z,72.12
2019-01-02T11:04:33.440Z,72.12
2019-01-02T11:05:33.499Z,72.22
2019-01-02T11:06:33.420Z,71.92
2019-01-02T11:07:33.441Z,71.71
2019-01-02T11:08:33.403Z,71.92
2019-01-02T11:09:33.400Z,71.92
2019-01-02T11:10:33.484Z,72.22
2019-01-02T11:11:33.377Z,73.16
2019-01-02T11:12:33.358Z,71.98
2019-01-02T11:13:33.337Z,71.81
2019-01-02T11:14:33.336Z,71.50
2019-01-02T11:15:33.376Z,71.61
2019-01-02T11:16:33.528Z,71.61
2019-01-02T11:17:33.300Z,71.71
2019-01-02T11:18:33.292Z,71.61
2019-01-02T11:19:33.382Z,70.88
2019-01-02T11:20:33.299Z,71.37
2019-01-02T11:21:33.259Z,71.47
2019-01-02T11:22:33.288Z,71.57
2019-01-02T11:23:33.231Z,71.67
2019-01-02T11:24:33.227Z,70.75
2019-01-02T11:25:33.213Z,70.64
2019-01-02T11:26:33.201Z,71.67
2019-01-02T11:27:34.630Z,71.78
2019-01-02T11:28:33.180Z,70.75
2019-01-02T11:29:33.200Z,70.85
2019-01-02T11:30:33.158Z,70.33
2019-01-02T11:31:33.150Z,70.23
2019-01-02T11:32:33.137Z,69.61
2019-01-02T11:33:33.121Z,69.37
2019-01-02T11:34:33.175Z,70.09
2019-01-02T11:35:33.149Z,70.40
2019-01-02T11:36:33.100Z,69.27
2019-01-02T11:37:33.077Z,68.96
2019-01-02T11:38:33.069Z,69.58
2019-01-02T11:39:33.088Z,70.06
2019-01-02T11:40:33.047Z,68.24
2019-01-02T11:41:33.056Z,68.62
2019-01-02T11:42:33.020Z,68.51
2019-01-02T11:43:33.026Z,68.24
2019-01-02T11:44:33.001Z,68.72
2019-01-02T11:45:32.987Z,68.72
2019-01-02T11:46:33.039Z,68.44
2019-01-02T11:47:32.971Z,68.75
2019-01-02T11:48:32.957Z,67.72
2019-01-02T11:49:32.944Z,67.93
2019-01-02T11:50:32.958Z,67.79
2019-01-02T11:51:32.924Z,67.58
2019-01-02T11:52:32.917Z,68.30
2019-01-02T11:53:32.948Z,68.51
2019-01-02T11:54:32.880Z,68.30
2019-01-02T11:55:32.875Z,67.79
2019-01-02T11:56:32.878Z,68.41
2019-01-02T11:57:32.859Z,68.21
2019-01-02T11:58:33.722Z,67.86
2019-01-02T11:59:32.884Z,67.24
2019-01-02T12:00:32.822Z,67.24
2019-01-02T12:01:32.867Z,67.14
2019-01-02T12:02:34.315Z,67.35
2019-01-02T12:03:32.828Z,67.14
2019-01-02T12:04:32.797Z,67.35
2019-01-02T12:05:32.788Z,67.35
2019-01-02T12:06:32.757Z,67.14
2019-01-02T12:07:32.752Z,67.03
2019-01-02T12:08:32.772Z,65.70
2019-01-02T12:09:32.724Z,66.42
2019-01-02T12:10:32.735Z,66.01
2019-01-02T12:11:32.703Z,65.08
2019-01-02T12:12:33.223Z,65.39
2019-01-02T12:13:32.689Z,65.49
2019-01-02T12:14:32.706Z,65.59
2019-01-02T12:15:32.725Z,64.67
2019-01-02T12:16:32.648Z,64.39
2019-01-02T12:17:32.635Z,64.28
2019-01-02T12:18:32.667Z,64.87
2019-01-02T12:19:32.618Z,64.59
2019-01-02T12:20:32.604Z,64.39
2019-01-02T12:21:32.593Z,64.07
2019-01-02T12:22:32.584Z,64.07
2019-01-02T12:23:32.580Z,63.87
2019-01-02T12:24:32.597Z,63.97
2019-01-02T12:25:32.551Z,63.67
2019-01-02T12:26:32.536Z,63.77
2019-01-02T12:27:32.524Z,63.87
2019-01-02T12:28:32.505Z,63.97
2019-01-02T12:29:32.563Z,63.56
2019-01-02T12:30:32.496Z,63.25
2019-01-02T12:31:32.549Z,63.15
2019-01-02T12:32:32.471Z,63.25
2019-01-02T12:33:32.490Z,63.77
2019-01-02T12:34:32.509Z,63.25
2019-01-02T12:35:32.459Z,63.87
2019-01-02T12:36:32.580Z,63.97
2019-01-02T12:37:32.452Z,63.77
2019-01-02T12:38:32.445Z,62.43
2019-01-02T12:39:32.445Z,62.84
2019-01-02T12:40:32.458Z,62.22
2019-01-02T12:41:32.442Z,62.01
2019-01-02T12:42:32.362Z,61.60
2019-01-02T12:43:32.349Z,61.80
2019-01-02T12:44:32.395Z,61.91
2019-01-02T12:45:32.387Z,60.67
2019-01-02T12:46:32.336Z,61.19
2019-01-02T12:47:32.329Z,60.57
2019-01-02T12:48:32.309Z,59.84
2019-01-02T12:49:32.301Z,60.47
2019-01-02T12:50:32.307Z,60.88
2019-01-02T12:51:32.359Z,60.36
2019-01-02T12:52:32.397Z,60.47